Time;durP1;ratioP1;P1;durP2;ratioP2;P2;SDS_P1;SDS_P2;PMS_P1;PMS_P2;Temp;Humidity;BMP_temperature;BMP_pressure;BME280_temperature;BME280_humidity;BME280_pressure;Samples;Min_cycle;Max_cycle;Signal;HPM_P1;HPM_P2
2023/03/30 00:00:25;;;;;;;0.50;0.50;;;17.90;43.30;;;;;;5994737;23;20181;-86
2023/03/30 00:02:55;;;;;;;0.47;0.43;;;18.00;43.30;;;;;;6019878;23;20530;-86
2023/03/30 00:05:22;;;;;;;0.50;0.43;;;18.00;43.30;;;;;;5995632;23;20153;-86
2023/03/30 00:07:49;;;;;;;0.38;0.38;;;18.00;43.30;;;;;;6043437;23;20149;-86
2023/03/30 00:10:18;;;;;;;0.93;0.60;;;17.90;43.30;;;;;;6043366;23;20634;-86
2023/03/30 00:12:46;;;;;;;1.15;0.50;;;18.00;43.50;;;;;;6043862;23;20188;-86
2023/03/30 00:15:12;;;;;;;0.40;0.40;;;17.90;43.30;;;;;;6019861;23;20183;-85
2023/03/30 00:17:42;;;;;;;0.50;0.32;;;17.90;43.40;;;;;;6019435;23;20477;-86
2023/03/30 00:20:10;;;;;;;0.50;0.40;;;18.00;43.40;;;;;;6018922;23;20188;-86
2023/03/30 00:22:41;;;;;;;0.60;0.50;;;17.90;43.50;;;;;;6019847;23;20150;-86
2023/03/30 00:25:13;;;;;;;1.08;0.52;;;17.90;43.30;;;;;;5995607;23;20248;-86
2023/03/30 00:27:39;;;;;;;1.23;0.40;;;17.90;43.50;;;;;;6042590;23;20613;-86
2023/03/30 00:30:07;;;;;;;1.13;0.50;;;17.90;43.60;;;;;;6043388;23;20181;-86
2023/03/30 00:32:37;;;;;;;1.00;0.50;;;17.90;43.50;;;;;;6020123;23;20157;-86
2023/03/30 00:35:04;;;;;;;0.40;0.40;;;17.90;43.60;;;;;;6018927;23;20574;-86
2023/03/30 00:37:30;;;;;;;0.55;0.50;;;17.90;43.60;;;;;;6043452;23;20468;-86
2023/03/30 00:39:56;;;;;;;1.20;0.52;;;17.90;43.70;;;;;;6019244;23;20220;-86
2023/03/30 00:42:26;;;;;;;0.55;0.38;;;18.00;43.80;;;;;;6020126;23;20212;-86
2023/03/30 00:45:25;;;;;;;0.47;0.47;;;17.90;43.70;;;;;;5995309;23;20184;-86
2023/03/30 00:47:59;;;;;;;0.70;0.57;;;17.80;43.70;;;;;;6045714;23;20141;-86
2023/03/30 00:50:28;;;;;;;0.40;0.40;;;17.90;43.70;;;;;;6070639;23;20193;-86
2023/03/30 00:52:55;;;;;;;1.17;0.50;;;17.90;43.70;;;;;;6046124;23;20165;-86
2023/03/30 00:55:21;;;;;;;0.70;0.40;;;17.90;43.70;;;;;;6021492;23;20164;-86
2023/03/30 00:57:48;;;;;;;0.50;0.50;;;17.90;43.70;;;;;;6021688;23;20153;-86
2023/03/30 01:00:18;;;;;;;0.52;0.52;;;17.90;43.70;;;;;;6021442;23;20177;-86
2023/03/30 01:02:55;;;;;;;0.93;0.60;;;17.90;43.70;;;;;;5997510;23;20150;-86
2023/03/30 01:05:22;;;;;;;0.45;0.43;;;17.90;43.70;;;;;;5976415;23;20209;-86
2023/03/30 01:07:48;;;;;;;1.75;0.50;;;17.90;43.90;;;;;;6022373;23;20149;-86
2023/03/30 01:10:15;;;;;;;0.80;0.50;;;17.80;43.70;;;;;;6021352;23;20153;-86
2023/03/30 01:12:44;;;;;;;1.95;0.50;;;17.90;43.90;;;;;;6021605;23;20229;-85
2023/03/30 01:15:11;;;;;;;0.70;0.55;;;17.80;43.80;;;;;;6020581;23;20236;-86
2023/03/30 01:17:58;;;;;;;0.43;0.43;;;17.80;43.90;;;;;;6044824;23;20458;-86
2023/03/30 01:20:58;;;;;;;0.60;0.50;;;17.80;43.90;;;;;;6045481;23;20593;-86
2023/03/30 01:23:52;;;;;;;0.50;0.50;;;17.80;43.80;;;;;;6070475;23;20150;-86
2023/03/30 01:26:36;;;;;;;1.27;0.50;;;17.80;43.90;;;;;;6045022;23;20141;-86
2023/03/30 01:29:23;;;;;;;0.55;0.40;;;17.80;43.90;;;;;;6044351;23;20456;-86
2023/03/30 01:32:28;;;;;;;0.50;0.50;;;17.80;44.00;;;;;;6045532;23;20621;-86
2023/03/30 01:35:27;;;;;;;0.93;0.50;;;17.80;44.00;;;;;;6070767;23;20169;-85
2023/03/30 01:38:29;;;;;;;0.50;0.40;;;17.80;43.90;;;;;;5981096;23;20161;-86
2023/03/30 01:41:09;;;;;;;0.50;0.50;;;17.80;44.00;;;;;;5985466;23;20172;-86
2023/03/30 01:43:47;;;;;;;0.80;0.52;;;17.80;43.80;;;;;;6070334;23;20141;-86
2023/03/30 01:46:29;;;;;;;0.52;0.50;;;17.80;43.70;;;;;;6069844;23;20137;-86
2023/03/30 01:49:06;;;;;;;0.45;0.45;;;17.80;43.70;;;;;;5997924;23;20236;-86
2023/03/30 01:51:39;;;;;;;0.30;0.30;;;17.80;43.90;;;;;;6070649;23;20176;-85
2023/03/30 01:54:28;;;;;;;0.65;0.52;;;17.80;43.90;;;;;;5997611;23;20240;-86
2023/03/30 01:56:58;;;;;;;0.70;0.50;;;17.80;44.00;;;;;;6044631;23;20164;-86
2023/03/30 01:59:28;;;;;;;0.70;0.55;;;17.80;44.00;;;;;;6021045;23;20157;-87
2023/03/30 02:01:59;;;;;;;0.45;0.43;;;17.80;44.10;;;;;;6044562;23;20546;-86
2023/03/30 02:04:25;;;;;;;0.57;0.40;;;17.80;44.10;;;;;;6045073;23;20141;-85
2023/03/30 02:06:54;;;;;;;0.95;0.45;;;17.80;44.10;;;;;;6044763;23;20446;-85
2023/03/30 02:09:22;;;;;;;0.40;0.40;;;17.70;44.10;;;;;;6020537;23;20180;-85
2023/03/30 02:11:51;;;;;;;0.75;0.52;;;17.80;44.00;;;;;;6021790;23;20213;-84
2023/03/30 02:14:18;;;;;;;0.47;0.47;;;17.80;44.10;;;;;;6044443;23;20144;-86
2023/03/30 02:16:46;;;;;;;0.40;0.40;;;17.80;44.10;;;;;;6044870;23;20213;-85
2023/03/30 02:19:12;;;;;;;0.60;0.60;;;17.80;44.10;;;;;;6020544;23;20193;-85
2023/03/30 02:21:38;;;;;;;0.60;0.60;;;17.80;44.00;;;;;;6044906;23;20597;-86
2023/03/30 02:24:06;;;;;;;0.47;0.40;;;17.80;44.00;;;;;;6069946;23;20581;-85
2023/03/30 02:26:32;;;;;;;0.68;0.40;;;17.80;44.10;;;;;;6020318;23;20659;-85
2023/03/30 02:29:02;;;;;;;0.60;0.50;;;17.80;44.00;;;;;;6044462;23;20129;-85
2023/03/30 02:31:29;;;;;;;0.50;0.50;;;17.80;44.10;;;;;;5996472;23;20625;-85
2023/03/30 02:34:11;;;;;;;1.45;0.50;;;17.70;44.10;;;;;;6044488;23;20158;-85
2023/03/30 02:36:53;;;;;;;0.60;0.47;;;17.80;44.10;;;;;;6070294;23;20138;-85
2023/03/30 02:39:57;;;;;;;0.40;0.30;;;17.80;44.20;;;;;;6044953;23;20153;-85
2023/03/30 02:42:47;;;;;;;0.70;0.50;;;17.80;44.10;;;;;;6048938;23;20533;-85
2023/03/30 02:45:47;;;;;;;0.40;0.40;;;17.70;44.00;;;;;;6070002;23;20281;-85
2023/03/30 02:48:32;;;;;;;0.50;0.50;;;17.70;44.10;;;;;;6069918;23;20157;-85
2023/03/30 02:51:17;;;;;;;0.88;0.50;;;17.70;44.30;;;;;;5974593;23;20201;-86
2023/03/30 02:53:48;;;;;;;0.70;0.50;;;17.70;44.30;;;;;;6092800;23;20153;-86
2023/03/30 02:56:27;;;;;;;0.55;0.40;;;17.70;44.30;;;;;;6069376;23;20129;-86
2023/03/30 02:59:09;;;;;;;0.47;0.47;;;17.70;44.30;;;;;;6044529;23;20221;-86
2023/03/30 03:01:41;;;;;;;0.47;0.40;;;17.80;44.40;;;;;;6020257;23;20490;-86
2023/03/30 03:04:14;;;;;;;0.68;0.60;;;17.70;44.30;;;;;;6044465;23;20224;-86
2023/03/30 03:06:41;;;;;;;0.50;0.50;;;17.70;44.30;;;;;;5997614;23;20153;-86
2023/03/30 03:09:07;;;;;;;0.60;0.52;;;17.70;44.20;;;;;;6020133;23;20217;-85
2023/03/30 03:11:33;;;;;;;0.90;0.60;;;17.60;44.10;;;;;;6069289;23;20138;-86
2023/03/30 03:13:59;;;;;;;0.55;0.40;;;17.70;44.30;;;;;;6044058;23;20585;-87
2023/03/30 03:16:29;;;;;;;0.70;0.50;;;17.70;44.30;;;;;;6020001;23;20181;-86
2023/03/30 03:18:55;;;;;;;0.50;0.50;;;17.70;44.30;;;;;;6043512;23;20157;-86
2023/03/30 03:21:21;;;;;;;0.50;0.50;;;17.70;44.40;;;;;;6044109;23;20162;-86
2023/03/30 03:23:47;;;;;;;0.50;0.50;;;17.70;44.40;;;;;;6020069;23;20141;-85
2023/03/30 03:26:13;;;;;;;0.73;0.40;;;17.70;44.40;;;;;;6020683;23;20485;-85
2023/03/30 03:28:43;;;;;;;0.95;0.55;;;17.70;44.30;;;;;;6043830;23;20137;-86
2023/03/30 03:31:11;;;;;;;0.77;0.57;;;17.70;44.40;;;;;;6043222;23;20182;-86
2023/03/30 03:33:36;;;;;;;0.80;0.60;;;17.70;44.50;;;;;;6044162;23;20574;-85
2023/03/30 03:36:08;;;;;;;1.25;0.63;;;17.70;44.40;;;;;;6020065;23;20158;-86
2023/03/30 03:38:35;;;;;;;0.63;0.47;;;17.70;44.40;;;;;;6019460;23;20293;-86
2023/03/30 03:41:01;;;;;;;0.50;0.50;;;17.70;44.40;;;;;;6044064;23;20609;-86
2023/03/30 03:43:32;;;;;;;1.02;0.40;;;17.70;44.40;;;;;;6044172;23;20140;-86
2023/03/30 03:45:58;;;;;;;0.47;0.47;;;17.70;44.40;;;;;;5972400;23;20237;-86
2023/03/30 03:48:30;;;;;;;0.65;0.50;;;17.70;44.50;;;;;;6043620;23;20188;-86
2023/03/30 03:50:57;;;;;;;0.60;0.50;;;17.70;44.50;;;;;;5990564;23;20201;-86
2023/03/30 03:53:24;;;;;;;0.50;0.50;;;17.60;44.50;;;;;;5992442;23;20463;-86
2023/03/30 03:55:51;;;;;;;0.57;0.50;;;17.70;44.60;;;;;;5991665;23;20150;-86
2023/03/30 03:58:17;;;;;;;0.45;0.45;;;17.70;44.70;;;;;;6015541;23;20158;-85
2023/03/30 04:00:43;;;;;;;0.80;0.40;;;17.60;44.50;;;;;;6041212;23;20628;-85
2023/03/30 04:03:10;;;;;;;1.05;0.50;;;17.70;44.60;;;;;;5992272;23;20241;-86
2023/03/30 04:05:37;;;;;;;0.50;0.50;;;17.60;44.50;;;;;;6015170;23;20146;-86
2023/03/30 04:08:03;;;;;;;0.60;0.60;;;17.60;44.60;;;;;;5991736;23;20165;-86
2023/03/30 04:10:33;;;;;;;0.65;0.57;;;17.60;44.60;;;;;;6040714;23;20570;-86
2023/03/30 04:12:59;;;;;;;0.52;0.40;;;17.60;44.70;;;;;;5969032;23;20587;-85
2023/03/30 04:15:32;;;;;;;0.50;0.40;;;17.60;44.60;;;;;;5992037;23;20237;-86
2023/03/30 04:18:04;;;;;;;1.42;0.60;;;17.60;44.50;;;;;;5968075;23;20463;-86
2023/03/30 04:20:30;;;;;;;0.57;0.57;;;17.60;44.60;;;;;;5969202;23;20256;-85
2023/03/30 04:22:56;;;;;;;0.50;0.50;;;17.60;44.40;;;;;;5994175;23;20621;-85
2023/03/30 04:25:24;;;;;;;0.77;0.50;;;17.60;44.50;;;;;;6017584;23;20575;-86
2023/03/30 04:27:51;;;;;;;0.82;0.65;;;17.60;44.60;;;;;;5995164;23;20170;-85
2023/03/30 04:30:18;;;;;;;0.68;0.63;;;17.70;44.60;;;;;;5994773;23;20150;-86
2023/03/30 04:32:46;;;;;;;0.52;0.50;;;17.60;44.70;;;;;;5994573;23;20160;-86
2023/03/30 04:35:13;;;;;;;0.38;0.38;;;17.60;44.50;;;;;;6017542;23;20223;-86
2023/03/30 04:37:40;;;;;;;0.35;0.35;;;17.70;44.60;;;;;;5993676;23;20150;-86
2023/03/30 04:40:09;;;;;;;0.50;0.50;;;17.60;44.50;;;;;;6017134;23;20202;-86
2023/03/30 04:42:36;;;;;;;0.75;0.40;;;17.60;44.60;;;;;;5994368;23;20150;-86
2023/03/30 04:45:09;;;;;;;0.52;0.38;;;17.70;44.70;;;;;;5994137;23;20209;-86
2023/03/30 04:47:40;;;;;;;1.27;0.60;;;17.50;44.50;;;;;;6042583;23;20150;-86
2023/03/30 04:50:06;;;;;;;0.50;0.50;;;17.60;44.40;;;;;;6003983;23;20197;-86
2023/03/30 04:52:32;;;;;;;0.63;0.45;;;17.60;44.70;;;;;;6045638;23;20604;-86
2023/03/30 04:55:02;;;;;;;0.90;0.68;;;17.60;44.60;;;;;;6022159;23;20157;-86
2023/03/30 04:57:28;;;;;;;0.50;0.50;;;17.60;44.40;;;;;;6021324;23;20160;-86
2023/03/30 04:59:54;;;;;;;0.60;0.60;;;17.60;44.60;;;;;;6021609;23;20150;-86
2023/03/30 05:02:19;;;;;;;0.77;0.50;;;17.60;44.60;;;;;;6071141;23;20470;-85
2023/03/30 05:04:50;;;;;;;0.60;0.60;;;17.60;44.70;;;;;;6022472;23;20169;-86
2023/03/30 05:07:21;;;;;;;0.40;0.40;;;17.60;44.50;;;;;;5997549;23;20609;-86
2023/03/30 05:09:47;;;;;;;0.50;0.50;;;17.60;44.70;;;;;;5974327;23;20187;-86
2023/03/30 05:12:15;;;;;;;0.57;0.50;;;17.60;44.50;;;;;;6071568;23;20141;-85
2023/03/30 05:14:41;;;;;;;0.50;0.50;;;17.60;44.60;;;;;;6045554;23;20145;-85
2023/03/30 05:17:07;;;;;;;0.77;0.60;;;17.50;44.60;;;;;;6046589;23;20503;-85
2023/03/30 05:19:37;;;;;;;0.40;0.40;;;17.60;44.60;;;;;;6071723;23;20216;-86
2023/03/30 05:22:08;;;;;;;0.95;0.60;;;17.60;44.50;;;;;;5997308;23;20189;-86
2023/03/30 05:24:38;;;;;;;0.95;0.60;;;17.60;44.70;;;;;;6021166;23;20156;-85
2023/03/30 05:27:04;;;;;;;0.63;0.60;;;17.60;44.60;;;;;;5997444;23;20161;-85
2023/03/30 05:29:33;;;;;;;0.60;0.40;;;17.60;44.60;;;;;;6021963;23;20157;-85
2023/03/30 05:31:59;;;;;;;0.40;0.40;;;17.50;44.60;;;;;;5997636;23;20449;-86
2023/03/30 05:34:29;;;;;;;0.85;0.52;;;17.60;44.50;;;;;;6021853;23;20248;-86
2023/03/30 05:37:00;;;;;;;0.43;0.43;;;17.60;44.60;;;;;;5951541;23;20285;-86
2023/03/30 05:39:26;;;;;;;0.80;0.60;;;17.60;44.60;;;;;;6020578;23;20158;-85
2023/03/30 05:41:52;;;;;;;0.55;0.55;;;17.60;44.60;;;;;;6045077;23;20179;-86
2023/03/30 05:44:18;;;;;;;0.70;0.57;;;17.60;44.70;;;;;;6044920;23;20215;-85
2023/03/30 05:46:44;;;;;;;0.55;0.52;;;17.60;44.50;;;;;;6020798;23;20177;-85
2023/03/30 05:49:10;;;;;;;0.50;0.43;;;17.60;44.70;;;;;;6044356;23;20569;-85
2023/03/30 05:51:39;;;;;;;0.68;0.68;;;17.60;44.70;;;;;;6045202;23;20165;-85
2023/03/30 05:54:05;;;;;;;0.65;0.60;;;17.60;44.70;;;;;;5996653;23;20162;-86
2023/03/30 05:56:31;;;;;;;1.02;0.50;;;17.60;44.70;;;;;;6021257;23;20321;-85
2023/03/30 05:58:57;;;;;;;0.47;0.47;;;17.60;44.70;;;;;;6045153;23;20562;-85
2023/03/30 06:01:25;;;;;;;0.40;0.40;;;17.50;44.50;;;;;;6044871;23;20216;-86
2023/03/30 06:03:54;;;;;;;0.50;0.50;;;17.60;44.40;;;;;;6044877;23;20185;-86
2023/03/30 06:06:21;;;;;;;0.47;0.40;;;17.60;44.50;;;;;;5996652;23;20534;-85
2023/03/30 06:08:52;;;;;;;0.52;0.50;;;17.60;44.40;;;;;;6070178;23;20144;-85
2023/03/30 06:11:18;;;;;;;0.63;0.55;;;17.60;44.60;;;;;;6020341;23;20183;-86
2023/03/30 06:13:44;;;;;;;0.57;0.50;;;17.60;44.60;;;;;;6044409;23;20613;-85
2023/03/30 06:16:10;;;;;;;0.50;0.50;;;17.60;44.30;;;;;;6021126;23;20157;-86
2023/03/30 06:18:37;;;;;;;0.90;0.50;;;17.60;44.70;;;;;;6044239;23;20169;-86
2023/03/30 06:21:05;;;;;;;0.47;0.47;;;17.60;44.60;;;;;;6092392;23;20708;-85
2023/03/30 06:23:33;;;;;;;0.50;0.50;;;17.60;44.50;;;;;;6070208;23;20130;-85
2023/03/30 06:26:03;;;;;;;0.73;0.40;;;17.60;44.30;;;;;;6020616;23;20169;-86
2023/03/30 06:28:30;;;;;;;0.68;0.60;;;17.70;44.20;;;;;;6020290;23;20153;-85
2023/03/30 06:30:56;;;;;;;0.52;0.50;;;17.70;44.10;;;;;;6044953;23;20142;-85
2023/03/30 06:33:22;;;;;;;0.45;0.45;;;17.70;44.20;;;;;;6070351;23;20492;-85
2023/03/30 06:35:48;;;;;;;0.40;0.40;;;17.70;44.30;;;;;;6021224;23;20153;-86
2023/03/30 06:38:19;;;;;;;0.65;0.60;;;17.70;44.50;;;;;;6045528;23;20137;-85
2023/03/30 06:40:45;;;;;;;0.63;0.57;;;17.70;44.30;;;;;;6045148;23;20240;-85
2023/03/30 06:43:19;;;;;;;1.38;0.50;;;17.80;44.10;;;;;;6021726;23;20601;-85
2023/03/30 06:45:53;;;;;;;0.40;0.40;;;17.80;43.70;;;;;;6046774;23;20153;-85
2023/03/30 06:48:22;;;;;;;0.50;0.32;;;17.90;43.50;;;;;;6047613;23;20159;-85
2023/03/30 06:50:53;;;;;;;0.70;0.40;;;17.90;43.40;;;;;;6025266;23;20201;-85
2023/03/30 06:53:19;;;;;;;0.68;0.50;;;18.00;43.20;;;;;;6070754;23;20157;-86
2023/03/30 06:55:49;;;;;;;0.88;0.70;;;18.00;43.30;;;;;;6022920;23;20258;-86
2023/03/30 06:58:19;;;;;;;0.43;0.43;;;18.00;43.20;;;;;;6046555;23;20170;-86
2023/03/30 07:00:45;;;;;;;0.50;0.50;;;18.10;43.20;;;;;;6046625;23;20192;-85
2023/03/30 07:03:11;;;;;;;0.88;0.68;;;18.10;43.30;;;;;;6023969;23;20146;-86
2023/03/30 07:05:37;;;;;;;0.60;0.40;;;18.10;42.70;;;;;;6048234;23;20144;-86
2023/03/30 07:08:09;;;;;;;0.40;0.40;;;18.10;42.60;;;;;;6074022;23;20141;-86
2023/03/30 07:10:35;;;;;;;0.40;0.40;;;18.20;42.90;;;;;;6072811;23;20153;-85
2023/03/30 07:13:07;;;;;;;0.50;0.43;;;18.10;42.80;;;;;;6076006;23;20193;-85
2023/03/30 07:15:33;;;;;;;0.60;0.50;;;18.20;42.80;;;;;;6076609;23;20610;-84
2023/03/30 07:18:03;;;;;;;0.40;0.40;;;18.20;42.50;;;;;;6050985;23;20168;-85
2023/03/30 07:20:29;;;;;;;0.38;0.38;;;18.20;42.60;;;;;;6025129;23;20240;-85
2023/03/30 07:22:55;;;;;;;0.73;0.40;;;18.20;42.50;;;;;;6026417;23;20156;-86
2023/03/30 07:25:25;;;;;;;0.70;0.50;;;18.20;42.80;;;;;;6027589;23;20149;-85
2023/03/30 07:27:52;;;;;;;0.47;0.45;;;18.20;42.70;;;;;;6002336;23;20481;-85
2023/03/30 07:30:21;;;;;;;0.80;0.60;;;18.20;42.50;;;;;;6027079;23;20485;-86
2023/03/30 07:32:48;;;;;;;0.40;0.40;;;18.20;42.60;;;;;;6026064;23;20158;-86
2023/03/30 07:35:15;;;;;;;0.30;0.30;;;18.20;42.60;;;;;;6054703;23;20213;-85
2023/03/30 07:37:41;;;;;;;1.35;0.55;;;18.20;42.60;;;;;;6057287;23;20157;-86
2023/03/30 07:40:11;;;;;;;0.38;0.38;;;18.20;42.80;;;;;;6078204;23;20165;-86
2023/03/30 07:42:40;;;;;;;0.80;0.30;;;18.20;42.50;;;;;;6049401;23;20156;-86
2023/03/30 07:45:07;;;;;;;0.60;0.30;;;18.30;42.50;;;;;;6054082;23;20202;-85
2023/03/30 07:47:33;;;;;;;0.35;0.35;;;18.30;42.60;;;;;;6050663;23;20262;-86
2023/03/30 07:49:59;;;;;;;0.70;0.40;;;18.40;42.40;;;;;;6055365;23;20211;-85
2023/03/30 07:52:26;;;;;;;0.45;0.32;;;18.40;42.40;;;;;;6055145;23;20149;-85
2023/03/30 07:54:53;;;;;;;0.50;0.50;;;18.30;42.70;;;;;;6057062;23;20149;-86
2023/03/30 07:57:21;;;;;;;0.40;0.40;;;18.30;42.60;;;;;;6055967;23;20153;-86
2023/03/30 07:59:47;;;;;;;2.03;0.50;;;18.40;42.70;;;;;;6030666;23;20133;-86
2023/03/30 08:02:20;;;;;;;0.43;0.43;;;18.20;42.60;;;;;;6057126;23;20181;-85
2023/03/30 08:04:52;;;;;;;0.40;0.40;;;18.40;42.70;;;;;;6031909;23;20145;-86
2023/03/30 08:07:23;;;;;;;0.43;0.38;;;18.30;43.00;;;;;;6024961;23;20150;-87
2023/03/30 08:09:50;;;;;;;0.40;0.40;;;18.40;42.60;;;;;;5962629;24;20216;-87
2023/03/30 08:12:16;;;;;;;0.63;0.40;;;18.30;42.80;;;;;;5959859;24;20156;-84
2023/03/30 08:14:42;;;;;;;1.60;0.55;;;18.30;42.80;;;;;;5937496;24;20165;-86
2023/03/30 08:17:08;;;;;;;0.47;0.40;;;18.30;42.40;;;;;;5935890;24;20156;-84
2023/03/30 08:19:38;;;;;;;0.73;0.40;;;18.40;42.50;;;;;;5963463;24;20159;-85
2023/03/30 08:22:09;;;;;;;0.30;0.30;;;18.50;42.40;;;;;;5896114;24;20236;-85
2023/03/30 08:24:36;;;;;;;0.20;0.20;;;18.50;42.30;;;;;;5919723;24;20267;-85
2023/03/30 08:27:01;;;;;;;0.40;0.40;;;18.50;42.30;;;;;;5943175;24;20192;-85
2023/03/30 08:29:30;;;;;;;0.35;0.35;;;18.50;42.20;;;;;;5919653;24;20166;-86
2023/03/30 08:32:03;;;;;;;2.42;0.40;;;18.50;42.30;;;;;;5919536;24;20258;-86
2023/03/30 08:34:28;;;;;;;0.68;0.40;;;18.50;42.30;;;;;;5918743;24;20159;-85
2023/03/30 08:37:01;;;;;;;0.40;0.40;;;18.50;42.60;;;;;;5896905;24;20163;-86
2023/03/30 08:39:31;;;;;;;1.02;0.50;;;18.50;42.40;;;;;;5920046;24;20156;-85
2023/03/30 08:42:05;;;;;;;3.20;0.70;;;18.50;42.30;;;;;;5947464;24;20175;-85
2023/03/30 08:44:46;;;;;;;0.68;0.50;;;18.40;42.40;;;;;;5996581;23;20175;-87
2023/03/30 08:47:21;;;;;;;1.50;0.40;;;18.50;42.60;;;;;;5977372;23;20206;-86
2023/03/30 08:49:57;;;;;;;1.48;0.52;;;18.40;42.60;;;;;;5974860;23;20234;-85
2023/03/30 08:52:24;;;;;;;1.80;0.40;;;18.50;42.50;;;;;;6024891;23;20150;-85
2023/03/30 08:54:51;;;;;;;1.75;0.40;;;18.50;42.50;;;;;;6011799;23;20159;-86
2023/03/30 08:57:31;;;;;;;1.67;0.40;;;18.60;42.10;;;;;;6006079;23;20177;-85
2023/03/30 09:00:28;;;;;;;1.05;0.40;;;18.60;42.60;;;;;;6032902;23;20153;-85
2023/03/30 09:03:08;;;;;;;0.30;0.30;;;18.50;42.50;;;;;;6050735;23;20130;-85
2023/03/30 09:05:40;;;;;;;4.72;0.60;;;18.50;42.30;;;;;;6031075;23;20224;-85
2023/03/30 09:08:21;;;;;;;3.08;0.65;;;18.60;42.50;;;;;;5995303;23;20154;-85
2023/03/30 09:11:00;;;;;;;3.47;0.63;;;18.50;42.60;;;;;;5966965;23;20155;-85
2023/03/30 09:13:46;;;;;;;2.05;0.73;;;18.50;43.00;;;;;;5931395;24;20208;-84
2023/03/30 09:16:36;;;;;;;1.48;0.40;;;18.40;43.10;;;;;;5955432;24;20167;-85
2023/03/30 09:19:02;;;;;;;2.42;0.30;;;18.40;43.00;;;;;;5938930;24;20162;-85
2023/03/30 09:21:30;;;;;;;0.40;0.40;;;18.40;42.70;;;;;;5943789;24;20179;-85
2023/03/30 09:23:59;;;;;;;0.73;0.47;;;18.60;42.60;;;;;;5894460;24;20157;-84
2023/03/30 09:26:56;;;;;;;1.48;0.50;;;18.60;42.30;;;;;;5889449;24;20253;-85
2023/03/30 09:29:32;;;;;;;2.05;0.50;;;18.60;42.30;;;;;;5936935;24;20514;-85
2023/03/30 09:32:05;;;;;;;0.40;0.40;;;18.60;43.00;;;;;;5913629;24;20171;-85
2023/03/30 09:34:46;;;;;;;1.45;0.40;;;18.60;42.80;;;;;;5912951;24;20192;-85
2023/03/30 09:37:20;;;;;;;1.77;0.45;;;18.60;42.30;;;;;;5915496;24;20231;-85
2023/03/30 09:39:49;;;;;;;0.60;0.30;;;18.60;42.60;;;;;;5933268;24;20158;-85
2023/03/30 09:42:46;;;;;;;1.52;0.38;;;18.60;42.60;;;;;;5965186;24;20175;-85
2023/03/30 09:45:26;;;;;;;0.60;0.40;;;18.60;42.40;;;;;;5903847;24;20250;-86
2023/03/30 09:47:55;;;;;;;0.47;0.47;;;18.60;42.50;;;;;;5919233;24;20658;-86
2023/03/30 09:50:25;;;;;;;0.30;0.30;;;18.60;42.60;;;;;;5911816;24;20227;-86
2023/03/30 09:52:59;;;;;;;0.30;0.30;;;18.60;42.40;;;;;;5938144;24;20577;-86
2023/03/30 09:55:34;;;;;;;0.82;0.30;;;18.60;42.30;;;;;;5977013;23;20158;-86
2023/03/30 09:58:16;;;;;;;0.70;0.50;;;18.60;42.50;;;;;;5954961;23;20363;-86
2023/03/30 10:00:59;;;;;;;2.35;0.30;;;18.60;42.20;;;;;;6004992;23;20182;-86
2023/03/30 10:03:28;;;;;;;1.40;0.40;;;18.60;42.30;;;;;;5959370;23;20594;-85
2023/03/30 10:06:11;;;;;;;1.90;0.40;;;18.60;42.50;;;;;;5978828;23;20154;-85
2023/03/30 10:08:49;;;;;;;0.40;0.40;;;18.60;42.60;;;;;;5984532;23;20157;-86
2023/03/30 10:11:20;;;;;;;2.25;0.40;;;18.60;42.70;;;;;;5978331;23;20165;-85
2023/03/30 10:13:47;;;;;;;1.10;0.40;;;18.50;42.70;;;;;;6025108;23;20161;-86
2023/03/30 10:16:27;;;;;;;0.52;0.50;;;18.50;42.30;;;;;;6027713;23;20154;-87
2023/03/30 10:19:00;;;;;;;0.40;0.40;;;18.60;42.60;;;;;;6003258;23;20183;-86
2023/03/30 10:21:29;;;;;;;1.75;0.30;;;18.60;42.10;;;;;;6026883;23;20625;-86
2023/03/30 10:24:07;;;;;;;0.60;0.40;;;18.60;42.30;;;;;;6005802;23;20223;-86
2023/03/30 10:26:37;;;;;;;0.38;0.30;;;18.70;42.00;;;;;;6029205;23;20157;-86
2023/03/30 10:29:06;;;;;;;1.35;0.50;;;18.60;42.20;;;;;;6029183;23;20613;-86
2023/03/30 10:31:35;;;;;;;0.45;0.28;;;18.70;42.60;;;;;;6025773;23;20177;-86
2023/03/30 10:34:03;;;;;;;0.75;0.40;;;18.70;42.30;;;;;;6024411;23;20153;-86
2023/03/30 10:36:32;;;;;;;0.60;0.30;;;18.70;42.30;;;;;;5996430;23;20157;-86
2023/03/30 10:39:16;;;;;;;1.65;0.47;;;18.60;42.10;;;;;;6020534;23;20233;-87
2023/03/30 10:41:48;;;;;;;0.28;0.20;;;18.70;42.10;;;;;;6001451;23;20184;-86
2023/03/30 10:44:25;;;;;;;2.17;0.57;;;18.70;41.90;;;;;;5961232;24;20224;-86
2023/03/30 10:47:20;;;;;;;0.40;0.40;;;18.70;41.80;;;;;;5913214;24;20156;-86
2023/03/30 10:50:06;;;;;;;1.65;0.40;;;18.70;41.80;;;;;;5966045;24;20212;-86
2023/03/30 10:52:40;;;;;;;1.30;0.47;;;18.70;42.10;;;;;;6014542;23;20144;-86
2023/03/30 10:55:19;;;;;;;0.40;0.30;;;18.70;42.00;;;;;;5963787;24;20239;-87
2023/03/30 10:58:11;;;;;;;1.17;0.28;;;18.60;42.30;;;;;;5968887;24;20155;-87
2023/03/30 11:00:48;;;;;;;0.75;0.30;;;18.60;42.40;;;;;;6013642;23;20561;-86
2023/03/30 11:03:18;;;;;;;0.52;0.40;;;18.70;42.20;;;;;;5964264;24;20143;-87
2023/03/30 11:05:48;;;;;;;1.75;0.50;;;18.70;41.80;;;;;;6008582;23;20151;-88
2023/03/30 11:08:18;;;;;;;1.40;0.20;;;18.70;41.90;;;;;;5964440;24;20205;-86
2023/03/30 11:10:54;;;;;;;0.20;0.20;;;18.70;41.90;;;;;;5942155;24;20271;-86
2023/03/30 11:13:25;;;;;;;2.00;0.40;;;18.70;42.00;;;;;;5989877;24;20222;-88
2023/03/30 11:15:56;;;;;;;0.22;0.22;;;18.70;41.80;;;;;;5972819;24;20155;-87
2023/03/30 11:18:27;;;;;;;0.50;0.50;;;18.70;41.80;;;;;;5971319;24;20154;-87
2023/03/30 11:21:01;;;;;;;2.03;0.30;;;18.70;41.80;;;;;;5943716;24;20187;-86
2023/03/30 11:24:01;;;;;;;0.28;0.28;;;18.70;41.80;;;;;;5962381;24;20309;-88
2023/03/30 11:26:48;;;;;;;0.65;0.35;;;18.70;41.50;;;;;;5983216;24;20143;-87
2023/03/30 11:29:41;;;;;;;0.45;0.38;;;18.80;41.30;;;;;;6017319;23;20237;-84
2023/03/30 11:32:49;;;;;;;;;;;;;;;;;;;;;
2023/03/30 11:35:35;;;;;;;0.85;0.30;;;18.70;42.00;;;;;;6037347;23;20213;-83
2023/03/30 11:49:08;;;;;;;1.38;0.30;;;18.70;42.10;;;;;;5960081;24;20224;-84
2023/03/30 11:52:28;;;;;;;;;;;;;;;;;;;;;
2023/03/30 11:55:51;;;;;;;0.70;0.30;;;18.70;42.10;;;;;;5889244;24;20146;-85
2023/03/30 11:59:51;;;;;;;0.85;0.50;;;18.60;41.90;;;;;;5958393;24;20239;-86
2023/03/30 12:02:10;;;;;;;0.50;0.38;;;18.60;42.10;;;;;;5912981;24;20249;-83
2023/03/30 12:05:05;;;;;;;0.68;0.28;;;18.70;41.90;;;;;;5849264;24;20154;-85
2023/03/30 12:08:05;;;;;;;2.47;0.30;;;18.70;41.80;;;;;;5870371;24;20159;-83
2023/03/30 12:10:39;;;;;;;0.50;0.40;;;18.70;41.80;;;;;;5848769;24;20241;-82
2023/03/30 12:13:14;;;;;;;0.65;0.20;;;18.70;41.80;;;;;;5828506;24;20216;-84
2023/03/30 12:16:00;;;;;;;0.28;0.20;;;18.70;41.90;;;;;;5828794;24;20166;-82
2023/03/30 12:18:45;;;;;;;3.20;0.40;;;18.70;41.90;;;;;;5924226;24;20578;-81
2023/03/30 12:21:47;;;;;;;1.25;0.30;;;18.70;42.50;;;;;;5922307;24;20186;-85
2023/03/30 12:24:24;;;;;;;1.35;0.30;;;18.70;42.70;;;;;;5932271;24;20157;-84
2023/03/30 12:26:57;;;;;;;1.00;0.40;;;18.70;42.30;;;;;;5910036;24;20232;-86
2023/03/30 12:29:49;;;;;;;1.20;0.30;;;18.70;42.20;;;;;;5914727;24;20220;-87
2023/03/30 12:32:31;;;;;;;0.30;0.30;;;18.70;42.30;;;;;;5852958;24;20159;-84
2023/03/30 12:34:58;;;;;;;0.30;0.20;;;18.70;42.40;;;;;;5828387;24;20225;-85
2023/03/30 12:37:33;;;;;;;0.93;0.30;;;18.70;42.30;;;;;;5854107;24;20206;-85
2023/03/30 12:40:24;;;;;;;1.25;0.30;;;18.70;42.30;;;;;;5829992;24;20596;-85
2023/03/30 12:43:23;;;;;;;0.70;0.40;;;18.70;42.20;;;;;;5843780;24;20167;-85
2023/03/30 12:46:09;;;;;;;1.60;0.47;;;18.60;42.00;;;;;;5832754;24;20158;-85
2023/03/30 12:49:18;;;;;;;0.77;0.40;;;18.70;42.10;;;;;;5873736;24;20151;-85
2023/03/30 12:52:12;;;;;;;1.55;0.30;;;18.70;42.10;;;;;;5878826;24;20308;-85
2023/03/30 12:55:14;;;;;;;0.30;0.30;;;18.70;42.10;;;;;;5867915;24;20161;-86
2023/03/30 12:58:14;;;;;;;0.30;0.30;;;18.70;42.30;;;;;;5806530;24;20564;-86
2023/03/30 13:01:05;;;;;;;0.40;0.20;;;18.70;42.50;;;;;;5825609;24;20798;-85
2023/03/30 13:03:51;;;;;;;0.65;0.22;;;18.70;42.40;;;;;;5784917;24;20170;-87
2023/03/30 13:06:29;;;;;;;1.02;0.30;;;18.70;42.50;;;;;;5823223;24;20159;-87
2023/03/30 13:09:33;;;;;;;0.57;0.40;;;18.70;42.80;;;;;;5843962;24;20166;-86
2023/03/30 13:12:33;;;;;;;1.75;0.52;;;18.70;42.60;;;;;;5829127;24;20165;-86
2023/03/30 13:15:29;;;;;;;0.30;0.30;;;18.80;42.60;;;;;;5829823;24;20161;-84
2023/03/30 13:18:08;;;;;;;1.23;0.32;;;18.80;43.10;;;;;;5823937;24;20210;-86
2023/03/30 13:21:00;;;;;;;1.70;0.38;;;18.80;42.50;;;;;;5827455;24;20182;-85
2023/03/30 13:23:38;;;;;;;0.85;0.30;;;18.80;42.70;;;;;;5827980;24;20158;-86
2023/03/30 13:26:20;;;;;;;8.63;0.65;;;18.80;42.60;;;;;;5830615;24;20287;-87
2023/03/30 13:29:07;;;;;;;1.98;0.40;;;18.80;43.20;;;;;;5956286;24;20160;-86
2023/03/30 13:31:52;;;;;;;;;;;;;;;;;;;;;
2023/03/30 13:34:56;;;;;;;0.90;0.40;;;18.80;43.50;;;;;;5985582;23;20660;-85
2023/03/30 13:37:58;;;;;;;2.88;0.30;;;18.80;43.60;;;;;;5998767;23;20169;-85